Time;durP1;ratioP1;P1;durP2;ratioP2;P2;SDS_P1;SDS_P2;PMS_P1;PMS_P2;Temp;Humidity;BMP_temperature;BMP_pressure;BME280_temperature;BME280_humidity;BME280_pressure;Samples;Min_cycle;Max_cycle;Signal;HPM_P1;HPM_P2
2022/06/19 00:02:19;;;;;;;8.55;4.13;;;;;;;20.09;100.00;99671.69;5083055;28;20034;-70
2022/06/19 00:04:47;;;;;;;8.50;4.15;;;;;;;20.38;100.00;99720.28;5070400;28;20059;-70
2022/06/19 00:07:13;;;;;;;25.30;4.78;;;;;;;20.40;100.00;99725.50;5074007;28;20016;-70
2022/06/19 00:09:39;;;;;;;4.15;2.47;;;;;;;20.30;100.00;99712.25;5048256;28;20820;-70
2022/06/19 00:12:05;;;;;;;6.57;3.10;;;;;;;19.88;100.00;99642.69;5062452;28;20487;-68
2022/06/19 00:14:33;;;;;;;7.78;3.42;;;;;;;20.13;100.00;99694.41;5055212;28;20128;-69
2022/06/19 00:16:59;;;;;;;10.35;3.67;;;;;;;20.09;100.00;99698.38;5067135;28;20064;-70
2022/06/19 00:19:25;;;;;;;4.68;2.88;;;;;;;20.07;100.00;99700.38;5081601;28;20036;-69
2022/06/19 00:21:51;;;;;;;7.85;2.28;;;;;;;19.98;100.00;99693.28;5066107;28;20032;-69
2022/06/19 00:24:16;;;;;;;9.07;3.20;;;;;;;19.85;100.00;99682.16;5085730;28;20028;-69
2022/06/19 00:26:42;;;;;;;6.03;2.90;;;;;;;19.85;100.00;99682.16;5084958;28;20433;-69
2022/06/19 00:29:07;;;;;;;7.38;3.60;;;;;;;19.66;100.00;99653.84;5068285;28;20033;-69
2022/06/19 00:31:32;;;;;;;9.10;3.28;;;;;;;19.80;100.00;99676.47;5048566;28;20119;-69
2022/06/19 00:33:58;;;;;;;5.68;3.28;;;;;;;19.69;100.00;99668.69;5080290;28;20028;-70
2022/06/19 00:36:26;;;;;;;6.38;3.13;;;;;;;19.70;100.00;99665.03;5058480;28;20112;-70
2022/06/19 00:38:52;;;;;;;9.93;3.15;;;;;;;19.66;100.00;99653.00;5092668;28;20437;-70
2022/06/19 00:41:17;;;;;;;9.63;3.42;;;;;;;19.67;100.00;99655.50;5092969;28;20079;-69
2022/06/19 00:43:56;;;;;;;5.00;2.88;;;;;;;19.64;100.00;99644.31;5064439;28;20020;-70
2022/06/19 00:46:41;;;;;;;5.47;2.50;;;;;;;19.61;100.00;99639.28;5094858;28;20043;-70
2022/06/19 00:49:11;;;;;;;8.63;3.20;;;;;;;19.57;100.00;99632.59;5084625;28;20128;-70
2022/06/19 00:51:37;;;;;;;4.38;2.58;;;;;;;19.51;100.00;99641.19;5090863;28;20055;-70
2022/06/19 00:54:03;;;;;;;6.25;2.75;;;;;;;19.38;100.00;99631.72;5075296;28;20105;-70
2022/06/19 00:56:30;;;;;;;7.88;2.83;;;;;;;19.38;100.00;99654.88;5079276;28;20032;-69
2022/06/19 00:58:55;;;;;;;5.40;2.95;;;;;;;19.29;100.00;99651.28;5065494;28;20505;-70
2022/06/19 01:01:24;;;;;;;8.80;3.10;;;;;;;19.25;100.00;99665.06;5059810;28;20163;-70
2022/06/19 01:03:55;;;;;;;6.72;2.65;;;;;;;19.23;100.00;99667.03;5084220;28;20040;-70
2022/06/19 01:06:21;;;;;;;5.18;2.70;;;;;;;19.12;100.00;99661.91;5081480;28;20093;-70
2022/06/19 01:08:47;;;;;;;10.43;3.03;;;;;;;19.04;100.00;99657.31;5060432;28;20020;-70
2022/06/19 01:11:14;;;;;;;5.40;2.80;;;;;;;18.86;100.00;99643.09;5065928;28;20455;-70
2022/06/19 01:13:39;;;;;;;7.05;3.25;;;;;;;18.91;100.00;99661.31;5088058;28;20028;-71
2022/06/19 01:16:05;;;;;;;8.80;3.83;;;;;;;18.80;100.00;99657.03;5072535;28;20024;-69
2022/06/19 01:18:33;;;;;;;7.90;3.15;;;;;;;18.69;100.00;99684.66;5086622;28;20102;-70
2022/06/19 01:21:10;;;;;;;9.93;3.50;;;;;;;18.56;100.00;99677.97;5069941;28;20036;-69
2022/06/19 01:23:53;;;;;;;8.40;2.85;;;;;;;18.47;100.00;99662.88;5085787;28;20045;-69
2022/06/19 01:26:20;;;;;;;9.55;3.38;;;;;;;18.44;100.00;99673.81;5080887;28;20119;-70
2022/06/19 01:28:45;;;;;;;7.65;3.38;;;;;;;18.33;100.00;99665.00;5063345;28;20061;-69
2022/06/19 01:31:14;;;;;;;6.25;3.15;;;;;;;18.12;100.00;99648.38;5041283;28;20171;-69
2022/06/19 01:33:44;;;;;;;6.00;3.50;;;;;;;18.16;100.00;99665.75;5041065;28;20033;-69
2022/06/19 01:36:12;;;;;;;9.10;3.03;;;;;;;18.06;100.00;99658.75;5048667;28;20125;-69
2022/06/19 01:38:39;;;;;;;9.35;3.75;;;;;;;18.08;100.00;99670.94;5065735;28;20445;-70
2022/06/19 01:41:15;;;;;;;9.70;3.70;;;;;;;17.82;100.00;99638.78;5082293;28;20024;-70
2022/06/19 01:43:41;;;;;;;9.32;3.13;;;;;;;17.90;100.00;99663.81;5069141;28;20111;-69
2022/06/19 01:46:06;;;;;;;6.85;3.03;;;;;;;17.82;100.00;99677.81;5058353;28;20158;-70
2022/06/19 01:48:32;;;;;;;13.02;3.95;;;;;;;17.80;100.00;99685.94;5090687;28;20032;-70
2022/06/19 01:50:58;;;;;;;6.07;3.17;;;;;;;17.67;100.00;99732.38;5091836;28;20399;-68
2022/06/19 01:53:31;;;;;;;10.50;3.47;;;;;;;17.62;100.00;99846.19;5092929;28;20036;-65
2022/06/19 01:55:57;;;;;;;7.43;2.95;;;;;;;17.55;100.00;99840.53;5061480;28;20725;-66
2022/06/19 01:58:26;;;;;;;6.97;3.10;;;;;;;17.56;100.00;99714.75;5075767;28;20117;-67
2022/06/19 02:00:52;;;;;;;9.98;3.38;;;;;;;17.44;100.00;99699.84;5069169;28;20039;-66
2022/06/19 02:03:26;;;;;;;6.55;3.22;;;;;;;17.26;100.00;99805.91;5058697;28;20691;-65
2022/06/19 02:05:51;;;;;;;8.35;3.38;;;;;;;17.04;100.00;99840.59;5076006;28;20028;-65
2022/06/19 02:08:17;;;;;;;10.00;3.50;;;;;;;16.96;100.00;99741.38;5048736;28;20498;-67
2022/06/19 02:10:45;;;;;;;13.73;4.15;;;;;;;16.89;100.00;99709.22;5042052;28;20036;-67
2022/06/19 02:13:12;;;;;;;9.93;3.78;;;;;;;16.79;100.00;99798.56;5074944;28;20020;-66
2022/06/19 02:15:38;;;;;;;9.20;4.25;;;;;;;16.61;100.00;99813.38;5068606;28;20031;-65
2022/06/19 02:18:05;;;;;;;13.50;3.63;;;;;;;16.54;100.00;99725.50;5087014;28;20012;-66
2022/06/19 02:20:31;;;;;;;9.13;3.22;;;;;;;16.50;100.00;99704.66;5078162;28;20067;-67
2022/06/19 02:22:57;;;;;;;8.38;4.00;;;;;;;16.34;100.00;99793.47;5069762;28;20105;-65
2022/06/19 02:25:23;;;;;;;13.63;4.45;;;;;;;16.15;100.00;99824.31;5084463;28;20042;-65
2022/06/19 02:27:48;;;;;;;14.10;4.28;;;;;;;16.12;100.00;99734.44;5069614;28;20033;-67
2022/06/19 02:30:14;;;;;;;12.85;4.22;;;;;;;15.97;100.00;99808.09;5053394;28;20046;-66
2022/06/19 02:32:43;;;;;;;11.95;4.93;;;;;;;15.86;100.00;99839.91;5076475;28;20075;-66
2022/06/19 02:35:15;;;;;;;10.13;4.75;;;;;;;15.84;100.00;99794.16;5086533;28;20032;-67
2022/06/19 02:37:44;;;;;;;13.50;4.90;;;;;;;15.75;100.00;99842.56;5069097;28;20490;-65
2022/06/19 02:40:41;;;;;;;10.35;4.03;;;;;;;15.69;100.00;99829.84;5081846;28;20020;-64
2022/06/19 02:43:15;;;;;;;9.30;4.45;;;;;;;15.59;100.00;99810.34;5068850;28;20020;-68
2022/06/19 02:45:41;;;;;;;17.17;5.03;;;;;;;15.50;100.00;99842.88;5046209;28;20143;-68
2022/06/19 02:48:14;;;;;;;15.38;4.60;;;;;;;15.38;100.00;99843.81;5085280;28;20031;-66
2022/06/19 02:50:42;;;;;;;10.63;4.65;;;;;;;15.23;100.00;99832.63;5058120;28;20050;-67
2022/06/19 02:53:07;;;;;;;14.02;3.90;;;;;;;15.25;100.00;99858.00;5093067;28;20067;-66
2022/06/19 02:55:32;;;;;;;10.13;4.55;;;;;;;15.17;100.00;99864.88;5086870;28;20182;-65
2022/06/19 02:57:58;;;;;;;16.00;5.03;;;;;;;15.01;100.00;99829.94;5079561;28;20074;-66
2022/06/19 03:00:25;;;;;;;12.80;4.88;;;;;;;15.07;100.00;99861.25;5072938;28;20037;-67
2022/06/19 03:02:54;;;;;;;9.25;4.32;;;;;;;15.07;100.00;99872.66;5069912;28;20033;-65
2022/06/19 03:05:26;;;;;;;13.90;4.95;;;;;;;14.87;100.00;99865.41;5068818;28;20063;-66
2022/06/19 03:07:52;;;;;;;9.13;4.00;;;;;;;14.77;100.00;99856.47;5067548;28;20032;-66
2022/06/19 03:10:17;;;;;;;9.95;3.65;;;;;;;14.67;100.00;99863.41;5076968;28;20065;-65
2022/06/19 03:12:44;;;;;;;9.25;3.85;;;;;;;14.88;100.00;99900.63;5078061;28;20127;-65
2022/06/19 03:15:10;;;;;;;12.13;3.80;;;;;;;14.59;100.00;99913.41;5083497;28;20090;-67
2022/06/19 03:17:36;;;;;;;11.60;3.58;;;;;;;14.68;100.00;99933.88;5067604;28;20025;-66
2022/06/19 03:20:03;;;;;;;17.85;4.43;;;;;;;14.67;100.00;99926.88;5083992;28;20485;-66
2022/06/19 03:22:28;;;;;;;14.00;3.50;;;;;;;14.66;100.00;99925.22;5069673;28;20486;-66
2022/06/19 03:24:53;;;;;;;8.18;2.80;;;;;;;14.47;100.00;99903.72;5081649;28;20174;-67
2022/06/19 03:27:19;;;;;;;8.35;3.00;;;;;;;14.49;100.00;99934.41;5071905;28;20111;-66
2022/06/19 03:29:44;;;;;;;10.15;4.00;;;;;;;14.29;100.00;99925.28;5080729;28;20039;-68
2022/06/19 03:32:11;;;;;;;7.35;3.03;;;;;;;14.40;100.00;99958.03;5071355;28;20398;-67
2022/06/19 03:34:37;;;;;;;12.02;2.53;;;;;;;14.25;100.00;99917.66;5065696;28;20032;-66
2022/06/19 03:37:02;;;;;;;4.90;2.47;;;;;;;14.16;100.00;99905.94;5085745;28;20431;-67
2022/06/19 03:39:31;;;;;;;11.60;2.95;;;;;;;14.14;100.00;99892.03;5089294;28;20019;-66
2022/06/19 03:41:57;;;;;;;11.30;2.38;;;;;;;14.19;100.00;99908.38;5075660;28;20108;-65
2022/06/19 03:44:22;;;;;;;6.90;2.80;;;;;;;14.18;100.00;99885.56;5084982;28;20135;-68
2022/06/19 03:46:48;;;;;;;7.97;2.45;;;;;;;14.13;100.00;99887.69;5070913;28;20036;-68
2022/06/19 03:49:13;;;;;;;6.78;3.10;;;;;;;14.17;100.00;99902.34;5072480;28;20576;-67
2022/06/19 03:51:39;;;;;;;4.35;2.17;;;;;;;14.20;100.00;99914.50;5082250;28;20024;-68
2022/06/19 03:54:07;;;;;;;7.10;2.40;;;;;;;13.94;100.00;99879.41;5072928;28;20028;-68
2022/06/19 03:56:32;;;;;;;8.20;2.30;;;;;;;14.16;100.00;99905.13;5083994;28;20021;-68
2022/06/19 03:58:58;;;;;;;10.60;2.85;;;;;;;14.15;100.00;99904.28;5080442;28;20067;-68
2022/06/19 04:01:35;;;;;;;4.28;2.38;;;;;;;13.98;100.00;99862.41;5081771;28;20040;-68
2022/06/19 04:04:01;;;;;;;5.53;1.60;;;;;;;14.19;100.00;99887.22;5074831;28;20037;-68
2022/06/19 04:06:29;;;;;;;7.38;2.45;;;;;;;14.06;100.00;99878.50;5054531;28;20024;-69
2022/06/19 04:08:55;;;;;;;3.05;1.63;;;;;;;13.98;100.00;99874.75;5067513;28;20034;-68
2022/06/19 04:11:22;;;;;;;3.00;1.30;;;;;;;14.24;100.00;99919.47;5070144;28;20111;-68
2022/06/19 04:13:47;;;;;;;7.88;1.65;;;;;;;14.15;100.00;99946.56;5076842;28;20041;-68
2022/06/19 04:16:21;;;;;;;7.72;1.70;;;;;;;14.03;100.00;100016.13;5081981;28;20032;-67
2022/06/19 04:18:48;;;;;;;3.35;1.70;;;;;;;14.23;100.00;100001.47;5088137;28;20147;-68
2022/06/19 04:21:15;;;;;;;5.65;1.45;;;;;;;13.88;100.00;99858.72;5084681;28;20046;-69
2022/06/19 04:23:42;;;;;;;10.40;2.03;;;;;;;14.29;100.00;99917.34;5074302;28;20460;-69
2022/06/19 04:26:12;;;;;;;8.65;3.20;;;;;;;14.36;100.00;99949.47;5101133;28;20526;-68
2022/06/19 04:28:38;;;;;;;9.23;3.22;;;;;;;14.38;100.00;99942.28;5071136;28;20063;-69
2022/06/19 04:31:03;;;;;;;8.55;3.38;;;;;;;14.41;100.00;99920.06;5079425;28;20086;-68
2022/06/19 04:33:29;;;;;;;12.70;3.88;;;;;;;14.38;100.00;99915.84;5078932;28;20033;-69
2022/06/19 04:35:54;;;;;;;11.45;3.10;;;;;;;14.38;100.00;99909.69;5078181;28;20029;-68
2022/06/19 04:38:19;;;;;;;7.75;3.15;;;;;;;14.38;100.00;99922.91;5086836;28;20107;-69
2022/06/19 04:40:45;;;;;;;8.65;3.65;;;;;;;14.37;100.00;99894.78;5088324;28;20029;-69
2022/06/19 04:43:11;;;;;;;19.80;3.75;;;;;;;14.40;100.00;99899.88;5080318;28;20036;-68
2022/06/19 04:45:38;;;;;;;9.35;3.42;;;;;;;14.50;100.00;99900.88;5074737;28;20506;-68
2022/06/19 04:48:04;;;;;;;11.23;3.50;;;;;;;14.49;100.00;99902.69;5080351;28;20121;-68
2022/06/19 04:50:29;;;;;;;6.35;2.83;;;;;;;14.44;100.00;99873.09;5072279;28;20024;-68
2022/06/19 04:52:55;;;;;;;21.92;4.15;;;;;;;14.61;100.00;99872.66;5085518;28;20035;-68
2022/06/19 04:55:21;;;;;;;8.07;3.13;;;;;;;14.50;100.00;99845.38;5092662;28;20521;-69
2022/06/19 04:57:46;;;;;;;6.82;3.15;;;;;;;14.65;100.00;99868.00;5076313;28;20059;-69
2022/06/19 05:00:14;;;;;;;11.18;3.83;;;;;;;14.67;100.00;99869.56;5090682;28;20050;-69
2022/06/19 05:02:40;;;;;;;10.75;3.45;;;;;;;14.64;100.00;99858.38;5089823;28;20043;-67
2022/06/19 05:05:06;;;;;;;9.40;3.28;;;;;;;14.77;100.00;99851.19;5073639;28;20021;-68
2022/06/19 05:07:33;;;;;;;7.70;3.17;;;;;;;14.64;100.00;99814.25;5062950;28;20051;-68
2022/06/19 05:09:58;;;;;;;8.57;3.13;;;;;;;14.78;100.00;99826.44;5056372;28;20028;-68
2022/06/19 05:12:24;;;;;;;10.55;3.00;;;;;;;14.87;100.00;99838.94;5075642;28;20036;-68
2022/06/19 05:14:49;;;;;;;10.80;3.75;;;;;;;14.91;100.00;99839.53;5064590;28;20087;-68
2022/06/19 05:17:14;;;;;;;10.48;3.55;;;;;;;14.87;100.00;99822.25;5085422;28;20549;-68
2022/06/19 05:19:41;;;;;;;6.30;2.70;;;;;;;14.91;100.00;99802.50;5067248;28;20398;-69
2022/06/19 05:22:06;;;;;;;15.48;4.03;;;;;;;15.02;100.00;99806.03;5063805;28;20382;-69
2022/06/19 05:24:32;;;;;;;10.95;3.65;;;;;;;15.07;100.00;99803.84;5077537;28;20021;-69
2022/06/19 05:26:57;;;;;;;12.57;3.45;;;;;;;15.11;100.00;99809.75;5082915;28;20036;-68
2022/06/19 05:29:23;;;;;;;12.23;4.00;;;;;;;14.96;100.00;99808.31;5083858;28;20039;-68
2022/06/19 05:31:51;;;;;;;8.02;3.05;;;;;;;15.11;100.00;99815.88;5081350;28;20032;-68
2022/06/19 05:34:16;;;;;;;13.02;3.78;;;;;;;15.04;100.00;99785.56;5095131;28;20029;-68
2022/06/19 05:36:42;;;;;;;10.05;3.30;;;;;;;15.08;100.00;99789.66;5074813;28;20032;-70
2022/06/19 05:39:10;;;;;;;9.70;3.35;;;;;;;15.20;100.00;99803.75;5078847;28;20473;-69
2022/06/19 05:41:40;;;;;;;7.90;3.00;;;;;;;15.21;100.00;99797.47;5078169;28;20032;-70
2022/06/19 05:44:05;;;;;;;11.95;3.42;;;;;;;15.30;100.00;99813.50;5086947;28;20024;-69
2022/06/19 05:46:30;;;;;;;15.15;3.97;;;;;;;15.45;100.00;99807.91;5080860;28;20544;-69
2022/06/19 05:48:56;;;;;;;11.45;3.35;;;;;;;15.62;100.00;99802.16;5074179;28;20029;-69
2022/06/19 05:51:23;;;;;;;8.70;3.30;;;;;;;15.92;100.00;99833.28;5078684;28;20055;-71
2022/06/19 05:53:51;;;;;;;8.85;3.65;;;;;;;16.02;100.00;99823.63;5054732;28;20033;-70
2022/06/19 05:56:17;;;;;;;8.90;3.85;;;;;;;16.03;100.00;99812.03;5077023;28;20047;-70
2022/06/19 05:58:42;;;;;;;12.40;3.95;;;;;;;16.03;100.00;99793.50;5067477;28;20553;-70
2022/06/19 06:01:09;;;;;;;9.45;3.85;;;;;;;16.03;100.00;99812.88;5065324;28;20028;-69
2022/06/19 06:03:35;;;;;;;10.45;4.07;;;;;;;15.94;100.00;99885.19;5069878;28;20032;-70
2022/06/19 06:06:05;;;;;;;12.68;3.72;;;;;;;15.59;100.00;99906.53;5084460;28;20379;-69
2022/06/19 06:08:31;;;;;;;10.07;3.50;;;;;;;15.59;100.00;99895.09;5082995;28;20079;-70
2022/06/19 06:10:57;;;;;;;13.52;3.63;;;;;;;15.50;100.00;99835.78;5068809;28;20021;-70
2022/06/19 06:13:23;;;;;;;9.00;3.35;;;;;;;15.78;100.00;99864.38;5074292;28;20115;-70
2022/06/19 06:15:49;;;;;;;5.15;2.63;;;;;;;15.55;100.00;99808.91;5055737;28;20536;-70
2022/06/19 06:18:15;;;;;;;11.75;4.13;;;;;;;16.01;100.00;99885.53;5068913;28;20029;-70
2022/06/19 06:20:40;;;;;;;12.18;3.40;;;;;;;16.01;100.00;99875.78;5074188;28;20028;-70
2022/06/19 06:23:06;;;;;;;8.30;3.47;;;;;;;16.27;100.00;99919.56;5078815;28;20451;-70
2022/06/19 06:25:31;;;;;;;13.02;4.35;;;;;;;16.48;100.00;99987.75;5058664;28;20025;-70
2022/06/19 06:27:57;;;;;;;9.43;3.20;;;;;;;16.51;100.00;100136.88;5058668;28;20104;-68
2022/06/19 06:30:22;;;;;;;12.88;3.25;;;;;;;16.40;100.00;100174.00;5062699;28;20051;-71
2022/06/19 06:32:47;;;;;;;5.85;2.55;;;;;;;16.26;100.00;100160.97;5065728;28;20033;-69
2022/06/19 06:35:13;;;;;;;10.02;3.70;;;;;;;16.27;100.00;100202.44;5077110;28;20031;-69
2022/06/19 06:37:39;;;;;;;9.80;3.70;;;;;;;15.97;100.00;100186.22;5065482;28;20032;-68
2022/06/19 06:40:06;;;;;;;9.50;3.85;;;;;;;15.89;100.00;100194.75;5076849;28;20056;-69
2022/06/19 06:42:31;;;;;;;11.98;3.25;;;;;;;16.03;100.00;100206.94;5084433;28;20023;-68
2022/06/19 06:44:57;;;;;;;10.98;3.55;;;;;;;16.05;100.00;100190.00;5081482;28;20032;-69
2022/06/19 06:47:22;;;;;;;15.45;3.83;;;;;;;16.04;100.00;100176.84;5078885;28;20528;-69
2022/06/19 06:49:47;;;;;;;9.48;3.80;;;;;;;16.17;100.00;100204.09;5081073;28;20025;-68
2022/06/19 06:52:13;;;;;;;12.18;3.35;;;;;;;16.09;100.00;100164.91;5086785;28;20101;-69
2022/06/19 06:54:39;;;;;;;8.30;3.17;;;;;;;16.14;100.00;100183.13;5079509;28;20055;-68
2022/06/19 06:57:06;;;;;;;8.50;3.90;;;;;;;16.18;100.00;100169.53;5080049;28;20040;-68
2022/06/19 06:59:32;;;;;;;14.25;3.65;;;;;;;16.18;100.00;100164.25;5078244;28;20035;-68
2022/06/19 07:01:57;;;;;;;10.52;3.72;;;;;;;16.14;100.00;100162.78;5074768;28;20489;-69
2022/06/19 07:04:23;;;;;;;9.25;3.75;;;;;;;16.12;100.00;100154.06;5069857;28;20474;-65
2022/06/19 07:06:48;;;;;;;10.13;3.65;;;;;;;15.94;100.00;100134.31;5071384;28;20020;-67
2022/06/19 07:09:13;;;;;;;11.02;3.30;;;;;;;16.20;100.00;100135.78;5072271;28;20024;-67
2022/06/19 07:11:41;;;;;;;10.77;4.00;;;;;;;16.34;100.00;100146.16;5091531;28;20028;-64
2022/06/19 07:14:06;;;;;;;9.43;3.53;;;;;;;16.39;100.00;100113.16;5068124;28;20582;-66
2022/06/19 07:16:32;;;;;;;10.88;3.08;;;;;;;16.54;100.00;100094.19;5085648;28;20028;-68
2022/06/19 07:18:57;;;;;;;17.90;3.67;;;;;;;16.74;100.00;100097.94;5073099;28;20043;-67
2022/06/19 07:21:23;;;;;;;9.88;3.22;;;;;;;16.83;100.00;100076.81;5083750;28;20390;-69
2022/06/19 07:23:48;;;;;;;10.57;3.13;;;;;;;16.84;100.00;100078.50;5060993;28;20113;-66
2022/06/19 07:26:16;;;;;;;7.65;2.95;;;;;;;16.64;100.00;100097.00;5086216;28;20032;-65
2022/06/19 07:28:42;;;;;;;9.77;2.60;;;;;;;16.45;100.00;100070.22;5077432;28;20016;-66
2022/06/19 07:31:08;;;;;;;8.82;3.25;;;;;;;16.60;100.00;100095.53;5068979;28;20072;-65
2022/06/19 07:33:34;;;;;;;6.85;2.80;;;;;;;16.55;100.00;100092.41;5064904;28;20021;-65
2022/06/19 07:36:00;;;;;;;13.23;3.30;;;;;;;16.73;100.00;100113.00;5071869;28;20051;-64
2022/06/19 07:38:26;;;;;;;15.57;3.75;;;;;;;16.69;100.00;100147.91;5084008;28;20107;-66
2022/06/19 07:40:51;;;;;;;7.70;2.92;;;;;;;16.69;100.00;100166.47;5039580;28;20032;-67
2022/06/19 07:43:16;;;;;;;13.32;3.42;;;;;;;16.71;100.00;100188.41;5065077;28;20028;-68
2022/06/19 07:45:42;;;;;;;11.52;3.40;;;;;;;16.65;100.00;100165.00;5075603;28;20095;-69
2022/06/19 07:50:54;;;;;;;6.75;2.92;;;;;;;16.34;100.00;100158.56;5079874;28;20398;-71
2022/06/19 07:53:19;;;;;;;12.25;3.25;;;;;;;16.18;100.00;100137.72;5053968;28;20037;-68
2022/06/19 07:55:44;;;;;;;9.27;3.05;;;;;;;16.14;100.00;100130.97;5057758;28;20036;-68
2022/06/19 07:58:10;;;;;;;8.35;2.88;;;;;;;16.12;100.00;100101.06;5062497;28;20431;-68
2022/06/19 08:00:36;;;;;;;11.43;3.45;;;;;;;16.38;100.00;100091.09;5054274;28;20059;-68
2022/06/19 08:03:02;;;;;;;11.43;3.30;;;;;;;16.39;100.00;100082.16;5048192;28;20121;-65
2022/06/19 08:05:32;;;;;;;10.63;3.28;;;;;;;16.38;100.00;100084.94;5077063;28;20048;-67
2022/06/19 08:07:59;;;;;;;9.68;3.22;;;;;;;16.10;100.00;100060.59;5062976;28;20028;-66
2022/06/19 08:10:31;;;;;;;8.43;2.90;;;;;;;16.17;100.00;100068.91;5072128;28;20021;-67
2022/06/19 08:12:57;;;;;;;10.20;2.72;;;;;;;16.11;100.00;100078.19;5072296;28;20483;-67
2022/06/19 08:15:23;;;;;;;5.97;2.42;;;;;;;15.93;100.00;100055.75;5084238;28;20028;-68
2022/06/19 08:17:49;;;;;;;7.45;2.78;;;;;;;15.89;100.00;100070.19;5062858;28;20029;-67
2022/06/19 08:20:16;;;;;;;8.73;2.90;;;;;;;15.93;100.00;100047.81;5055823;28;20025;-67
2022/06/19 08:22:42;;;;;;;7.72;2.97;;;;;;;15.84;100.00;100048.53;5060073;28;20471;-68
2022/06/19 08:25:09;;;;;;;7.38;2.15;;;;;;;15.88;100.00;100031.44;5061948;28;20042;-68
2022/06/19 08:27:37;;;;;;;11.35;2.95;;;;;;;15.86;100.00;100038.63;5068263;28;20039;-67
2022/06/19 08:30:05;;;;;;;10.05;2.80;;;;;;;15.73;100.00;100061.75;5054913;28;20013;-68
2022/06/19 08:32:30;;;;;;;8.55;3.20;;;;;;;15.62;100.00;100044.03;5068362;28;20050;-68
2022/06/19 08:34:56;;;;;;;5.72;2.15;;;;;;;15.60;100.00;100055.72;5058772;28;20367;-67
2022/06/19 08:37:21;;;;;;;7.97;2.47;;;;;;;15.64;100.00;100055.38;5084108;28;20028;-67
2022/06/19 08:39:46;;;;;;;6.70;2.65;;;;;;;15.64;100.00;100046.56;5076505;28;20039;-68
2022/06/19 08:42:37;;;;;;;8.90;2.55;;;;;;;15.72;100.00;100038.84;5063378;28;20032;-68
2022/06/19 08:45:12;;;;;;;7.75;2.92;;;;;;;15.84;100.00;100065.28;5064575;28;20036;-68
2022/06/19 08:48:05;;;;;;;8.10;2.33;;;;;;;15.86;100.00;100065.13;5068082;28;20036;-68
2022/06/19 08:50:49;;;;;;;7.00;2.13;;;;;;;15.88;100.00;100060.59;5066749;28;21327;-68
2022/06/19 08:53:24;;;;;;;8.65;2.53;;;;;;;15.87;100.00;100053.59;5063840;28;20100;-68
2022/06/19 08:56:08;;;;;;;8.35;2.88;;;;;;;15.66;100.00;100044.63;5050849;28;20033;-67
2022/06/19 08:58:48;;;;;;;11.17;3.20;;;;;;;15.46;100.00;100077.06;5074496;28;20032;-67
2022/06/19 09:01:23;;;;;;;8.88;3.67;;;;;;;15.08;100.00;100133.69;5071513;28;20071;-67
2022/06/19 09:06:55;;;;;;;6.78;2.70;;;;;;;14.58;100.00;100102.09;5069956;28;19918;-67
2022/06/19 09:09:40;;;;;;;15.15;6.55;;;;;;;14.23;100.00;100026.13;5074294;28;20043;-65
2022/06/19 09:12:30;;;;;;;7.15;3.40;;;;;;;13.93;100.00;100023.00;5047828;28;20115;-65
2022/06/19 09:15:17;;;;;;;7.50;2.95;;;;;;;13.89;100.00;99947.56;5076652;28;20032;-65
2022/06/19 09:18:00;;;;;;;11.18;2.90;;;;;;;13.77;100.00;99924.66;5068809;28;20032;-65
2022/06/19 09:20:32;;;;;;;6.78;2.58;;;;;;;13.68;100.00;99894.50;5071225;28;20112;-68
2022/06/19 09:23:22;;;;;;;8.68;3.53;;;;;;;13.71;100.00;99835.34;5084514;28;20024;-66
2022/06/19 09:26:00;;;;;;;10.70;2.70;;;;;;;13.29;100.00;100002.81;5089829;28;20024;-66
2022/06/19 09:28:37;;;;;;;19.75;11.40;;;;;;;12.99;100.00;99981.94;5062083;28;20043;-65
2022/06/19 09:31:28;;;;;;;10.10;3.20;;;;;;;13.11;100.00;99957.41;5061999;28;20441;-65
2022/06/19 09:33:56;;;;;;;9.40;3.22;;;;;;;13.09;100.00;99877.53;5063331;28;20071;-65
2022/06/19 09:36:27;;;;;;;8.43;3.28;;;;;;;13.32;100.00;99929.56;5091729;28;20032;-66
2022/06/19 09:39:00;;;;;;;12.23;4.57;;;;;;;13.49;100.00;99968.00;5079908;28;20039;-66
2022/06/19 09:41:33;;;;;;;19.25;5.13;;;;;;;13.73;100.00;100023.53;5075399;28;20043;-66
2022/06/19 09:44:09;;;;;;;22.38;2.72;;;;;;;13.88;100.00;100027.78;5069880;28;20033;-66
2022/06/19 09:46:43;;;;;;;13.10;3.58;;;;;;;13.99;100.00;100003.25;5068275;28;20121;-65
2022/06/19 09:49:30;;;;;;;16.35;3.67;;;;;;;14.16;100.00;99985.22;5080918;28;20020;-66
2022/06/19 09:52:00;;;;;;;14.18;4.07;;;;;;;14.31;100.00;99994.72;5086897;28;20031;-65
2022/06/19 09:54:33;;;;;;;10.68;4.72;;;;;;;14.60;100.00;100005.00;5074876;28;20460;-65
2022/06/19 09:57:13;;;;;;;11.15;3.83;;;;;;;14.80;100.00;100001.75;5078954;28;20036;-65
2022/06/19 09:59:54;;;;;;;12.05;3.92;;;;;;;15.15;100.00;100013.19;5069304;28;20397;-65
2022/06/19 10:02:49;;;;;;;10.48;3.90;;;;;;;15.40;100.00;100017.47;5078720;28;20024;-65
2022/06/19 10:05:43;;;;;;;6.03;1.30;;;;;;;15.64;100.00;100041.28;5081118;28;20081;-65
2022/06/19 10:08:32;;;;;;;7.10;1.20;;;;;;;15.73;100.00;100014.06;5047112;28;20071;-65
2022/06/19 10:11:09;;;;;;;5.28;2.10;;;;;;;15.88;100.00;100038.53;5055733;28;20074;-65
2022/06/19 10:14:12;;;;;;;5.15;1.85;;;;;;;15.89;100.00;100034.91;5086737;28;20087;-66
2022/06/19 10:16:44;;;;;;;17.42;4.78;;;;;;;15.80;100.00;100017.94;5074617;28;20538;-65
2022/06/19 10:19:18;;;;;;;823.08;51.63;;;;;;;15.83;100.00;100009.72;5071359;28;20037;-65
2022/06/19 10:22:25;;;;;;;15.20;5.57;;;;;;;15.68;100.00;100032.94;5074356;28;20043;-65
2022/06/19 10:25:08;;;;;;;13.38;4.10;;;;;;;15.74;100.00;100036.94;5073567;28;20394;-66
2022/06/19 10:27:55;;;;;;;13.20;4.57;;;;;;;15.74;100.00;100043.09;5066468;28;20030;-65
2022/06/19 10:30:36;;;;;;;1999.90;180.13;;;;;;;15.59;100.00;100011.63;5078238;28;20024;-64
2022/06/19 10:33:19;;;;;;;9.02;3.45;;;;;;;15.88;100.00;100007.59;5093653;28;20081;-65
2022/06/19 10:35:53;;;;;;;9.27;3.30;;;;;;;15.76;100.00;100005.88;5065157;28;20052;-65
2022/06/19 10:38:30;;;;;;;;;;;;;;;15.92;100.00;99998.41;5057806;28;20032;-66
2022/06/19 10:41:09;;;;;;;9.02;2.60;;;;;;;16.39;100.00;99970.78;5055525;28;19924;-66
2022/06/19 10:43:55;;;;;;;5.38;2.67;;;;;;;16.42;100.00;99970.53;5056206;28;20386;-66
2022/06/19 10:46:24;;;;;;;68.10;8.32;;;;;;;16.56;100.00;99990.66;5051507;28;20036;-66
2022/06/19 10:48:52;;;;;;;81.72;7.03;;;;;;;16.77;100.00;100000.34;5053878;28;20048;-67
2022/06/19 10:51:33;;;;;;;25.17;3.92;;;;;;;16.80;100.00;100001.91;5054768;28;20546;-66
2022/06/19 10:54:26;;;;;;;9.73;2.55;;;;;;;16.67;100.00;100006.53;5081733;28;20111;-66
2022/06/19 10:57:16;;;;;;;9.30;2.78;;;;;;;16.57;100.00;100002.94;5084973;28;20032;-66
2022/06/19 10:59:41;;;;;;;5.10;2.05;;;;;;;16.52;100.00;100021.03;5055200;28;20378;-66
2022/06/19 11:05:16;;;;;;;43.97;3.42;;;;;;;16.76;100.00;100064.19;5062434;28;20083;-66
2022/06/19 11:07:41;;;;;;;83.10;6.40;;;;;;;16.75;100.00;100062.47;5082231;28;20367;-65
2022/06/19 11:10:16;;;;;;;4.70;1.95;;;;;;;16.50;100.00;100068.88;5070628;28;20031;-65
2022/06/19 11:12:48;;;;;;;4.75;1.50;;;;;;;16.49;100.00;100045.16;5055573;28;20086;-66
2022/06/19 11:15:30;;;;;;;491.27;37.00;;;;;;;16.76;100.00;100088.06;5085579;28;20070;-65
2022/06/19 11:18:18;;;;;;;108.47;15.32;;;;;;;17.08;100.00;100091.59;5051617;28;20020;-66
2022/06/19 11:21:10;;;;;;;19.10;9.30;;;;;;;17.26;100.00;100105.16;5045302;28;20032;-66
2022/06/19 11:23:41;;;;;;;11.82;6.82;;;;;;;17.45;100.00;100092.03;5065420;28;20028;-67
2022/06/19 11:26:14;;;;;;;28.00;6.50;;;;;;;17.91;100.00;100093.53;5064856;28;20040;-68
2022/06/19 11:29:21;;;;;;;39.20;5.78;;;;;;;18.24;100.00;100110.06;5070974;28;20028;-67
2022/06/19 11:32:09;;;;;;;13.45;5.82;;;;;;;18.54;100.00;100117.22;5025609;28;20055;-67
2022/06/19 11:34:47;;;;;;;12.18;4.80;;;;;;;18.27;100.00;100104.50;5084377;28;20102;-66
2022/06/19 11:37:26;;;;;;;11.07;4.57;;;;;;;18.83;100.00;100098.69;5086865;28;20402;-66
2022/06/19 11:40:13;;;;;;;9.57;4.38;;;;;;;19.35;100.00;100065.50;5070996;28;20091;-66
2022/06/19 11:42:51;;;;;;;13.05;4.65;;;;;;;20.19;100.00;100067.34;5091215;28;20032;-67